Terminal Aerodrome Forecast
Issued by NWS

Current Version | Previous Version | Text Only | Print | Product List | Glossary On
Versions: 1 2 3 4 5 6 7 8 9 10 11 12 13 14 15 16 17 18 19
000
FTAK31 PANC 300350 AAA
TAFADL
TAF AMD
PADL 300350Z 3004/3024 21014G22KT P6SM BKN040 BKN100
     FM301000 18011KT P6SM BKN015 BKN100
     FM302000 18014G22KT P6SM -SHRA BKN015 BKN100=

USA.gov is the U.S. government's official web portal to all federal, state and local government web resources and services.